Time;durP1;ratioP1;P1;durP2;ratioP2;P2;SDS_P1;SDS_P2;PMS_P1;PMS_P2;Temp;Humidity;BMP_temperature;BMP_pressure;BME280_temperature;BME280_humidity;BME280_pressure;Samples;Min_cycle;Max_cycle;Signal;HPM_P1;HPM_P2
2021/09/03 00:01:31;;;;;;;10.80;7.40;;;;;;;;;;5091879;28;20202;-45
2021/09/03 00:03:57;;;;;;;9.02;6.97;;;;;;;;;;5073939;28;20190;-45
2021/09/03 00:06:24;;;;;;;9.43;7.43;;;;;;;;;;5089597;28;20178;-45
2021/09/03 00:08:50;;;;;;;9.20;6.82;;;;;;;;;;5093742;28;20170;-45
2021/09/03 00:11:16;;;;;;;9.85;7.35;;;;;;;;;;5093566;28;20532;-45
2021/09/03 00:13:42;;;;;;;8.32;6.70;;;;;;;;;;5079255;28;20178;-45
2021/09/03 00:16:08;;;;;;;8.40;6.97;;;;;;;;;;5085696;28;20189;-45
2021/09/03 00:18:34;;;;;;;9.35;6.90;;;;;;;;;;5093737;28;20429;-45
2021/09/03 00:21:00;;;;;;;7.57;6.78;;;;;;;;;;5094020;28;20177;-45
2021/09/03 00:23:26;;;;;;;8.75;7.03;;;;;;;;;;5078714;28;20445;-45
2021/09/03 00:25:53;;;;;;;11.93;7.20;;;;;;;;;;5077493;28;20178;-45
2021/09/03 00:28:19;;;;;;;8.82;7.07;;;;;;;;;;5086232;28;20189;-45
2021/09/03 00:30:45;;;;;;;13.27;7.35;;;;;;;;;;5097492;28;20197;-45
2021/09/03 00:33:11;;;;;;;8.07;7.22;;;;;;;;;;5097221;28;20200;-45
2021/09/03 00:35:37;;;;;;;7.72;6.10;;;;;;;;;;5096960;28;20201;-45
2021/09/03 00:38:03;;;;;;;9.15;6.63;;;;;;;;;;5097655;28;20786;-45
2021/09/03 00:40:28;;;;;;;9.00;7.07;;;;;;;;;;5108834;28;20196;-45
2021/09/03 00:42:55;;;;;;;8.48;6.68;;;;;;;;;;5082432;28;20182;-45
2021/09/03 00:45:20;;;;;;;7.22;6.32;;;;;;;;;;5076750;28;20163;-45
2021/09/03 00:47:46;;;;;;;8.10;6.60;;;;;;;;;;5076426;28;20186;-45
2021/09/03 00:50:13;;;;;;;6.97;6.28;;;;;;;;;;5091098;28;20342;-45
2021/09/03 00:52:39;;;;;;;9.60;6.70;;;;;;;;;;5096054;28;20186;-45
2021/09/03 00:55:06;;;;;;;8.82;7.35;;;;;;;;;;5096098;28;20247;-45
2021/09/03 00:57:32;;;;;;;10.65;6.95;;;;;;;;;;5085512;28;20186;-45
2021/09/03 00:59:58;;;;;;;7.05;6.35;;;;;;;;;;5076551;28;20509;-45
2021/09/03 01:02:24;;;;;;;9.15;6.90;;;;;;;;;;5076807;28;20201;-45
2021/09/03 01:04:51;;;;;;;8.65;6.63;;;;;;;;;;5076832;28;20178;-45
2021/09/03 01:07:17;;;;;;;6.60;5.95;;;;;;;;;;5096445;28;20468;-45
2021/09/03 01:09:43;;;;;;;9.23;6.95;;;;;;;;;;5093412;28;20206;-45
2021/09/03 01:12:09;;;;;;;8.25;6.85;;;;;;;;;;5096737;28;20196;-45
2021/09/03 01:14:35;;;;;;;7.00;6.28;;;;;;;;;;5082862;28;20232;-45
2021/09/03 01:17:02;;;;;;;7.78;6.63;;;;;;;;;;5082894;28;20189;-45
2021/09/03 01:19:28;;;;;;;8.65;6.30;;;;;;;;;;5095744;28;20443;-45
2021/09/03 01:21:54;;;;;;;8.77;6.60;;;;;;;;;;5090715;28;20175;-45
2021/09/03 01:24:20;;;;;;;9.10;6.50;;;;;;;;;;5093730;28;20563;-45
2021/09/03 01:26:46;;;;;;;9.00;6.38;;;;;;;;;;5095810;28;20174;-45
2021/09/03 01:29:12;;;;;;;8.05;6.00;;;;;;;;;;5081258;28;20794;-45
2021/09/03 01:31:39;;;;;;;8.80;6.30;;;;;;;;;;5076131;28;20259;-45
2021/09/03 01:34:05;;;;;;;6.78;6.07;;;;;;;;;;5085235;28;20181;-45
2021/09/03 01:36:32;;;;;;;7.47;6.38;;;;;;;;;;5093825;28;20182;-46
2021/09/03 01:38:58;;;;;;;8.15;6.30;;;;;;;;;;5100015;28;20302;-45
2021/09/03 01:41:25;;;;;;;7.78;5.57;;;;;;;;;;5106479;28;20192;-45
2021/09/03 01:43:51;;;;;;;8.70;6.32;;;;;;;;;;5096004;28;20254;-45
2021/09/03 01:46:17;;;;;;;7.45;5.75;;;;;;;;;;5095509;28;20212;-45
2021/09/03 01:48:43;;;;;;;7.05;6.10;;;;;;;;;;5076428;28;20458;-45
2021/09/03 01:51:09;;;;;;;11.35;5.40;;;;;;;;;;5080680;28;20229;-45
2021/09/03 01:53:35;;;;;;;6.80;5.57;;;;;;;;;;5076069;28;20232;-45
2021/09/03 01:56:01;;;;;;;6.07;5.43;;;;;;;;;;5075546;28;20220;-45
2021/09/03 01:58:27;;;;;;;8.77;5.90;;;;;;;;;;5092995;28;20181;-46
2021/09/03 02:00:53;;;;;;;7.18;5.38;;;;;;;;;;5095174;28;20473;-45
2021/09/03 02:03:19;;;;;;;6.15;5.38;;;;;;;;;;5094838;28;20178;-45
2021/09/03 02:05:45;;;;;;;7.10;5.47;;;;;;;;;;5088248;28;20200;-46
2021/09/03 02:08:11;;;;;;;6.75;5.28;;;;;;;;;;5089967;28;20572;-45
2021/09/03 02:10:37;;;;;;;5.88;5.28;;;;;;;;;;5095334;28;20221;-45
2021/09/03 02:13:03;;;;;;;6.57;5.20;;;;;;;;;;5080822;28;20820;-45
2021/09/03 02:15:29;;;;;;;8.70;5.50;;;;;;;;;;5095572;28;20224;-45
2021/09/03 02:17:55;;;;;;;9.05;5.43;;;;;;;;;;5081653;28;20174;-45
2021/09/03 02:20:21;;;;;;;8.27;5.80;;;;;;;;;;5094058;28;20471;-45
2021/09/03 02:22:47;;;;;;;9.23;5.60;;;;;;;;;;5085688;28;20263;-45
2021/09/03 02:25:13;;;;;;;6.75;5.28;;;;;;;;;;5095368;28;20256;-45
2021/09/03 02:27:39;;;;;;;6.78;5.40;;;;;;;;;;5084386;28;20218;-45
2021/09/03 02:30:06;;;;;;;7.25;5.90;;;;;;;;;;5095346;28;20318;-45
2021/09/03 02:32:32;;;;;;;8.85;5.60;;;;;;;;;;5094342;28;21665;-45
2021/09/03 02:34:58;;;;;;;8.48;5.75;;;;;;;;;;5094916;28;20261;-45
2021/09/03 02:37:24;;;;;;;6.13;5.53;;;;;;;;;;5088410;28;20189;-45
2021/09/03 02:39:50;;;;;;;5.57;4.88;;;;;;;;;;5102634;28;20223;-45
2021/09/03 02:42:16;;;;;;;7.78;5.35;;;;;;;;;;5092565;28;20288;-45
2021/09/03 02:44:42;;;;;;;6.30;5.28;;;;;;;;;;5095083;28;20739;-45
2021/09/03 02:47:08;;;;;;;5.75;5.15;;;;;;;;;;5091924;28;20190;-45
2021/09/03 02:49:35;;;;;;;7.75;5.13;;;;;;;;;;5094987;28;20208;-45
2021/09/03 02:52:01;;;;;;;6.15;5.25;;;;;;;;;;5093295;28;20557;-45
2021/09/03 02:54:26;;;;;;;8.35;5.18;;;;;;;;;;5094560;28;20184;-45
2021/09/03 02:56:52;;;;;;;7.25;5.40;;;;;;;;;;5092360;28;20173;-45
2021/09/03 02:59:18;;;;;;;5.95;5.18;;;;;;;;;;5094677;28;20170;-45
2021/09/03 03:01:44;;;;;;;6.95;5.38;;;;;;;;;;5090197;28;20548;-45
2021/09/03 03:04:10;;;;;;;5.80;4.70;;;;;;;;;;5074653;28;20178;-45
2021/09/03 03:06:36;;;;;;;7.25;4.82;;;;;;;;;;5075488;28;20465;-45
2021/09/03 03:09:02;;;;;;;5.70;5.00;;;;;;;;;;5083665;28;20181;-45
2021/09/03 03:11:29;;;;;;;5.35;4.82;;;;;;;;;;5093747;28;20293;-45
2021/09/03 03:14:32;;;;;;;5.22;4.72;;;;;;;;;;5094532;28;20219;-45
2021/09/03 03:16:47;;;;;;;5.20;4.70;;;;;;;;;;5090631;28;20178;-45
2021/09/03 03:19:13;;;;;;;7.22;4.97;;;;;;;;;;5094183;28;20252;-45
2021/09/03 03:21:39;;;;;;;5.53;4.93;;;;;;;;;;5094122;28;20177;-45
2021/09/03 03:24:05;;;;;;;5.50;4.40;;;;;;;;;;5094226;28;20181;-45
2021/09/03 03:26:31;;;;;;;5.97;4.50;;;;;;;;;;5092085;28;20174;-45
2021/09/03 03:28:57;;;;;;;5.72;4.50;;;;;;;;;;5091703;28;20265;-45
2021/09/03 03:31:23;;;;;;;7.75;4.65;;;;;;;;;;5074402;28;20205;-45
2021/09/03 03:33:49;;;;;;;5.70;4.28;;;;;;;;;;5084303;28;20223;-45
2021/09/03 03:36:15;;;;;;;6.45;4.30;;;;;;;;;;5093790;28;20546;-45
2021/09/03 03:38:41;;;;;;;5.50;4.53;;;;;;;;;;5099483;28;20229;-45
2021/09/03 03:41:06;;;;;;;6.55;4.53;;;;;;;;;;5106188;28;20203;-45
2021/09/03 03:43:32;;;;;;;7.53;4.68;;;;;;;;;;5094845;28;20185;-45
2021/09/03 03:45:58;;;;;;;6.80;4.47;;;;;;;;;;5094328;28;20196;-45
2021/09/03 03:48:26;;;;;;;6.72;4.32;;;;;;;;;;5089761;28;20256;-45
2021/09/03 03:50:52;;;;;;;6.07;4.22;;;;;;;;;;5094035;28;20189;-45
2021/09/03 03:53:18;;;;;;;4.80;4.40;;;;;;;;;;5093618;28;20188;-45
2021/09/03 03:55:44;;;;;;;4.78;4.10;;;;;;;;;;5094252;28;20193;-45
2021/09/03 03:58:10;;;;;;;5.50;4.28;;;;;;;;;;5092961;28;20209;-45
2021/09/03 04:00:36;;;;;;;5.78;4.38;;;;;;;;;;5097965;28;20193;-45
2021/09/03 04:03:02;;;;;;;4.88;4.38;;;;;;;;;;5078189;28;20503;-45
2021/09/03 04:05:28;;;;;;;6.65;4.38;;;;;;;;;;5084617;28;20196;-45
2021/09/03 04:07:54;;;;;;;4.50;4.10;;;;;;;;;;5086463;28;20248;-45
2021/09/03 04:10:22;;;;;;;5.20;4.57;;;;;;;;;;5077708;28;20190;-45
2021/09/03 04:12:48;;;;;;;6.10;3.85;;;;;;;;;;5078952;28;20557;-45
2021/09/03 04:15:14;;;;;;;5.55;4.00;;;;;;;;;;5096757;28;20239;-45
2021/09/03 04:17:40;;;;;;;6.63;4.82;;;;;;;;;;5096582;28;20185;-45
2021/09/03 04:20:07;;;;;;;5.45;4.30;;;;;;;;;;5097352;28;20558;-45
2021/09/03 04:22:33;;;;;;;7.30;4.43;;;;;;;;;;5097608;28;20281;-45
2021/09/03 04:24:59;;;;;;;8.50;4.93;;;;;;;;;;5093375;28;20223;-45
2021/09/03 04:27:25;;;;;;;8.00;4.03;;;;;;;;;;5092506;28;20549;-45
2021/09/03 04:29:51;;;;;;;5.65;4.30;;;;;;;;;;5097680;28;20208;-45
2021/09/03 04:32:17;;;;;;;5.95;4.80;;;;;;;;;;5096995;28;20185;-45
2021/09/03 04:34:43;;;;;;;7.30;4.35;;;;;;;;;;5097310;28;20259;-45
2021/09/03 04:37:09;;;;;;;9.13;4.68;;;;;;;;;;5092033;28;20222;-45
2021/09/03 04:39:35;;;;;;;7.03;4.35;;;;;;;;;;5105612;28;20462;-45
2021/09/03 04:42:01;;;;;;;5.07;4.25;;;;;;;;;;5107762;28;20178;-45
2021/09/03 04:44:27;;;;;;;8.20;4.07;;;;;;;;;;5097403;28;20165;-45
2021/09/03 04:46:53;;;;;;;7.75;4.28;;;;;;;;;;5095869;28;20170;-45
2021/09/03 04:49:19;;;;;;;5.07;4.45;;;;;;;;;;5093224;28;20252;-45
2021/09/03 04:51:45;;;;;;;5.35;4.45;;;;;;;;;;5095665;28;20197;-45
2021/09/03 04:54:11;;;;;;;4.38;3.80;;;;;;;;;;5097044;28;20601;-45
2021/09/03 04:56:37;;;;;;;6.28;4.75;;;;;;;;;;5096499;28;20201;-45
2021/09/03 04:59:03;;;;;;;7.55;4.38;;;;;;;;;;5078040;28;20178;-45
2021/09/03 05:01:29;;;;;;;5.68;4.40;;;;;;;;;;5085371;28;20269;-45
2021/09/03 05:03:55;;;;;;;5.95;4.63;;;;;;;;;;5085173;28;20259;-45
2021/09/03 05:06:21;;;;;;;4.70;4.22;;;;;;;;;;5095196;28;20494;-45
2021/09/03 05:08:47;;;;;;;6.65;4.20;;;;;;;;;;5084680;28;20178;-45
2021/09/03 05:11:13;;;;;;;5.47;4.00;;;;;;;;;;5096355;28;20299;-45
2021/09/03 05:13:39;;;;;;;6.10;4.45;;;;;;;;;;5082850;28;20202;-45
2021/09/03 05:16:05;;;;;;;5.03;4.10;;;;;;;;;;5096344;28;20181;-45
2021/09/03 05:18:31;;;;;;;4.18;3.78;;;;;;;;;;5090050;28;20234;-45
2021/09/03 05:20:57;;;;;;;5.88;4.20;;;;;;;;;;5096390;28;20177;-45
2021/09/03 05:23:23;;;;;;;7.03;4.55;;;;;;;;;;5080244;28;20248;-45
2021/09/03 05:25:49;;;;;;;5.25;3.85;;;;;;;;;;5079718;28;20189;-45
2021/09/03 05:28:15;;;;;;;5.43;4.25;;;;;;;;;;5084984;28;20182;-45
2021/09/03 05:30:41;;;;;;;5.05;4.25;;;;;;;;;;5094347;28;20507;-45
2021/09/03 05:33:07;;;;;;;6.35;3.97;;;;;;;;;;5093345;28;20205;-45
2021/09/03 05:35:33;;;;;;;5.57;4.47;;;;;;;;;;5084086;28;20249;-45
2021/09/03 05:38:05;;;;;;;5.35;4.13;;;;;;;;;;5084349;28;20597;-45
2021/09/03 05:40:35;;;;;;;6.18;4.35;;;;;;;;;;5100243;28;20209;-45
2021/09/03 05:43:01;;;;;;;7.47;4.43;;;;;;;;;;5082499;28;20186;-45
2021/09/03 05:45:27;;;;;;;6.20;4.35;;;;;;;;;;5093122;28;20177;-45
2021/09/03 05:47:53;;;;;;;8.63;4.72;;;;;;;;;;5094755;28;20265;-45
2021/09/03 05:50:20;;;;;;;7.10;3.70;;;;;;;;;;5096091;28;20269;-45
2021/09/03 05:52:46;;;;;;;5.47;4.00;;;;;;;;;;5083314;28;20182;-45
2021/09/03 05:55:12;;;;;;;8.43;3.83;;;;;;;;;;5075890;28;20217;-45
2021/09/03 05:57:38;;;;;;;6.00;3.92;;;;;;;;;;5089310;28;20186;-45
2021/09/03 06:00:05;;;;;;;8.02;3.97;;;;;;;;;;5094609;28;20196;-45
2021/09/03 06:02:31;;;;;;;7.63;3.95;;;;;;;;;;5086618;28;20261;-45
2021/09/03 06:04:57;;;;;;;7.63;4.60;;;;;;;;;;5084167;28;20187;-45
2021/09/03 06:07:23;;;;;;;9.73;4.03;;;;;;;;;;5077923;28;20189;-45
2021/09/03 06:09:49;;;;;;;6.05;4.30;;;;;;;;;;5095384;28;20266;-45
2021/09/03 06:12:15;;;;;;;6.50;4.10;;;;;;;;;;5094480;28;20181;-45
2021/09/03 06:14:41;;;;;;;7.05;4.18;;;;;;;;;;5091635;28;20190;-45
2021/09/03 06:17:07;;;;;;;12.07;4.40;;;;;;;;;;5091911;28;20178;-45
2021/09/03 06:19:34;;;;;;;8.63;4.35;;;;;;;;;;5094528;28;20225;-45
2021/09/03 06:22:01;;;;;;;4.90;4.07;;;;;;;;;;5085101;28;20174;-45
2021/09/03 06:24:30;;;;;;;5.15;4.43;;;;;;;;;;5095129;28;20177;-45
2021/09/03 06:26:58;;;;;;;4.93;4.07;;;;;;;;;;5094167;28;20182;-45
2021/09/03 06:29:43;;;;;;;5.32;4.00;;;;;;;;;;5094889;28;20188;-45
2021/09/03 06:32:12;;;;;;;6.28;4.32;;;;;;;;;;5095145;28;20269;-45
2021/09/03 06:34:45;;;;;;;6.15;3.95;;;;;;;;;;5095176;28;20490;-45
2021/09/03 06:37:12;;;;;;;5.13;4.43;;;;;;;;;;5094043;28;20169;-45
2021/09/03 06:39:38;;;;;;;6.68;4.57;;;;;;;;;;5096752;28;20193;-45
2021/09/03 06:42:04;;;;;;;6.05;4.72;;;;;;;;;;5105162;28;20487;-45
2021/09/03 06:44:30;;;;;;;7.03;4.53;;;;;;;;;;5095340;28;20157;-45
2021/09/03 06:46:56;;;;;;;8.00;4.57;;;;;;;;;;5094388;28;20586;-45
2021/09/03 06:49:23;;;;;;;8.90;4.80;;;;;;;;;;5076214;28;20178;-45
2021/09/03 06:51:49;;;;;;;7.68;4.50;;;;;;;;;;5081282;28;20233;-45
2021/09/03 06:54:15;;;;;;;6.03;4.35;;;;;;;;;;5094549;28;20205;-45
2021/09/03 06:56:41;;;;;;;4.72;4.22;;;;;;;;;;5093857;28;20442;-45
2021/09/03 06:59:07;;;;;;;6.75;4.53;;;;;;;;;;5077922;28;20174;-45
2021/09/03 07:01:33;;;;;;;6.57;4.90;;;;;;;;;;5074786;28;20202;-45
2021/09/03 07:03:59;;;;;;;6.57;4.53;;;;;;;;;;5073705;28;20182;-45
2021/09/03 07:06:25;;;;;;;6.40;5.10;;;;;;;;;;5074620;28;20236;-45
2021/09/03 07:08:51;;;;;;;7.05;5.05;;;;;;;;;;5081423;28;20224;-45
2021/09/03 07:11:17;;;;;;;5.97;4.80;;;;;;;;;;5092920;28;20209;-45
2021/09/03 07:13:43;;;;;;;5.75;5.07;;;;;;;;;;5094523;28;20231;-45
2021/09/03 07:16:09;;;;;;;6.03;5.07;;;;;;;;;;5093188;28;20185;-45
2021/09/03 07:18:35;;;;;;;6.88;4.75;;;;;;;;;;5089159;28;20173;-45
2021/09/03 07:21:01;;;;;;;6.05;4.78;;;;;;;;;;5094502;28;20548;-45
2021/09/03 07:23:27;;;;;;;6.60;5.40;;;;;;;;;;5093584;28;20192;-45
2021/09/03 07:25:53;;;;;;;7.78;5.05;;;;;;;;;;5093340;28;20260;-44
2021/09/03 07:28:19;;;;;;;5.38;4.72;;;;;;;;;;5091358;28;20442;-44
2021/09/03 07:30:45;;;;;;;6.93;5.40;;;;;;;;;;5085653;28;20246;-44
2021/09/03 07:33:11;;;;;;;6.03;4.60;;;;;;;;;;5094642;28;20178;-45
2021/09/03 07:35:37;;;;;;;7.28;4.70;;;;;;;;;;5086639;28;20178;-45
2021/09/03 07:38:04;;;;;;;6.20;4.95;;;;;;;;;;5090799;28;20454;-45
2021/09/03 07:40:32;;;;;;;8.85;5.43;;;;;;;;;;5110637;28;20169;-45
2021/09/03 07:43:06;;;;;;;6.72;4.90;;;;;;;;;;5082998;28;20186;-45
2021/09/03 07:45:33;;;;;;;6.30;5.13;;;;;;;;;;5084123;28;20209;-45
2021/09/03 07:47:59;;;;;;;5.72;4.30;;;;;;;;;;5112837;28;20177;-45
2021/09/03 07:50:25;;;;;;;8.15;5.03;;;;;;;;;;5098187;28;20230;-45
2021/09/03 07:52:51;;;;;;;5.88;5.10;;;;;;;;;;5086528;28;20193;-45
2021/09/03 07:55:18;;;;;;;6.32;5.20;;;;;;;;;;5078056;28;20167;-45
2021/09/03 07:57:44;;;;;;;7.18;4.75;;;;;;;;;;5089921;28;20851;-45
2021/09/03 08:00:11;;;;;;;6.00;4.75;;;;;;;;;;5097675;28;20189;-45
2021/09/03 08:02:37;;;;;;;6.03;4.80;;;;;;;;;;5098596;28;20561;-45
2021/09/03 08:05:04;;;;;;;5.75;4.85;;;;;;;;;;5097629;28;20184;-45
2021/09/03 08:07:30;;;;;;;6.22;4.90;;;;;;;;;;5087235;28;20182;-45
2021/09/03 08:09:57;;;;;;;6.97;4.60;;;;;;;;;;5097449;28;20205;-45
2021/09/03 08:12:23;;;;;;;5.55;4.55;;;;;;;;;;5097718;28;20446;-45
2021/09/03 08:14:49;;;;;;;6.20;5.03;;;;;;;;;;5097954;28;20265;-45
2021/09/03 08:17:15;;;;;;;6.18;4.88;;;;;;;;;;5093766;28;20202;-45
2021/09/03 08:19:41;;;;;;;6.60;4.55;;;;;;;;;;5097230;28;20622;-45
2021/09/03 08:22:07;;;;;;;6.22;4.60;;;;;;;;;;5097375;28;20174;-45
2021/09/03 08:24:33;;;;;;;5.38;4.55;;;;;;;;;;5097631;28;20190;-45
2021/09/03 08:26:59;;;;;;;5.97;4.28;;;;;;;;;;5078517;28;20568;-45
2021/09/03 08:29:25;;;;;;;5.78;4.22;;;;;;;;;;5097611;28;20162;-45
2021/09/03 08:31:51;;;;;;;5.88;4.65;;;;;;;;;;5092150;28;20202;-45
2021/09/03 08:34:17;;;;;;;5.35;4.10;;;;;;;;;;5091135;28;20193;-45
2021/09/03 08:36:43;;;;;;;6.43;4.82;;;;;;;;;;5095481;28;20584;-45
2021/09/03 08:39:10;;;;;;;6.18;4.32;;;;;;;;;;5102856;28;20208;-45
2021/09/03 08:41:37;;;;;;;5.00;4.05;;;;;;;;;;5107661;28;20272;-45
2021/09/03 08:44:03;;;;;;;4.90;4.35;;;;;;;;;;5097216;28;20219;-45
2021/09/03 08:46:31;;;;;;;6.32;4.35;;;;;;;;;;5096263;28;20235;-46
2021/09/03 08:48:57;;;;;;;4.97;4.13;;;;;;;;;;5076294;28;20217;-46
2021/09/03 08:51:23;;;;;;;6.53;4.80;;;;;;;;;;5094763;28;20489;-46
2021/09/03 08:53:49;;;;;;;6.85;4.30;;;;;;;;;;5097158;28;20253;-46
2021/09/03 08:56:18;;;;;;;5.82;3.80;;;;;;;;;;5096817;28;20170;-47
2021/09/03 08:58:44;;;;;;;5.32;4.55;;;;;;;;;;5088264;28;20535;-45
2021/09/03 09:01:11;;;;;;;7.00;4.80;;;;;;;;;;5096749;28;20166;-45
2021/09/03 09:03:38;;;;;;;4.88;4.15;;;;;;;;;;5097822;28;20186;-45
2021/09/03 09:06:05;;;;;;;6.53;4.57;;;;;;;;;;5107183;28;20186;-45
2021/09/03 09:08:32;;;;;;;6.47;4.43;;;;;;;;;;5083290;28;20526;-45
2021/09/03 09:10:59;;;;;;;4.65;4.20;;;;;;;;;;5086341;28;20604;-45
2021/09/03 09:13:27;;;;;;;5.00;4.50;;;;;;;;;;5091446;28;20664;-45
2021/09/03 09:15:57;;;;;;;5.10;4.32;;;;;;;;;;5089145;28;20193;-45
2021/09/03 09:18:39;;;;;;;5.80;4.20;;;;;;;;;;5081183;28;20219;-45
2021/09/03 09:21:13;;;;;;;5.03;3.95;;;;;;;;;;5085159;28;20181;-45
2021/09/03 09:23:50;;;;;;;4.90;3.97;;;;;;;;;;5090115;28;20188;-46
2021/09/03 09:26:17;;;;;;;5.28;4.45;;;;;;;;;;5081678;28;20181;-47
2021/09/03 09:28:43;;;;;;;6.07;4.25;;;;;;;;;;5077315;28;20209;-47
2021/09/03 09:31:09;;;;;;;4.45;4.05;;;;;;;;;;5074603;28;20202;-45
2021/09/03 09:33:35;;;;;;;4.68;4.22;;;;;;;;;;5094676;28;20174;-45
2021/09/03 09:36:03;;;;;;;6.13;4.70;;;;;;;;;;5096108;28;20166;-45
2021/09/03 09:38:33;;;;;;;5.78;4.43;;;;;;;;;;5096042;28;20214;-45
2021/09/03 09:41:09;;;;;;;5.75;4.00;;;;;;;;;;5096456;28;20186;-45
2021/09/03 09:43:36;;;;;;;6.93;4.07;;;;;;;;;;5076267;28;20189;-45
2021/09/03 09:46:22;;;;;;;5.40;4.60;;;;;;;;;;5075695;28;20206;-45
2021/09/03 09:48:51;;;;;;;4.88;4.10;;;;;;;;;;5075951;28;20272;-46
2021/09/03 09:51:23;;;;;;;4.95;4.45;;;;;;;;;;5075656;28;20573;-46
2021/09/03 09:54:00;;;;;;;5.45;4.20;;;;;;;;;;5075429;28;20208;-46
2021/09/03 09:56:27;;;;;;;5.28;4.55;;;;;;;;;;5092495;28;20193;-46
2021/09/03 09:58:54;;;;;;;5.60;4.53;;;;;;;;;;5095285;28;20194;-46
2021/09/03 10:01:20;;;;;;;4.90;4.40;;;;;;;;;;5095551;28;20184;-46
2021/09/03 10:03:47;;;;;;;5.78;4.38;;;;;;;;;;5094901;28;20177;-45
2021/09/03 10:06:16;;;;;;;4.80;4.10;;;;;;;;;;5083247;28;20220;-46
2021/09/03 10:08:44;;;;;;;6.80;3.90;;;;;;;;;;5091397;28;20181;-46
2021/09/03 10:11:11;;;;;;;5.00;4.00;;;;;;;;;;5095482;28;20287;-46
2021/09/03 10:13:37;;;;;;;4.82;4.28;;;;;;;;;;5081246;28;20182;-46
2021/09/03 10:16:03;;;;;;;4.57;4.18;;;;;;;;;;5091694;28;20643;-46
2021/09/03 10:18:29;;;;;;;4.78;4.25;;;;;;;;;;5089404;28;20205;-46
2021/09/03 10:20:56;;;;;;;8.05;4.03;;;;;;;;;;5095630;28;20265;-46
2021/09/03 10:23:41;;;;;;;7.43;4.47;;;;;;;;;;5095165;28;20174;-46
2021/09/03 10:26:07;;;;;;;4.60;4.10;;;;;;;;;;5095556;28;20178;-46
2021/09/03 10:28:33;;;;;;;5.60;4.50;;;;;;;;;;5085622;28;20250;-46
2021/09/03 10:31:08;;;;;;;4.45;4.05;;;;;;;;;;5085985;28;20271;-46
2021/09/03 10:33:39;;;;;;;5.93;4.50;;;;;;;;;;5075190;28;20158;-46
2021/09/03 10:36:06;;;;;;;6.07;4.40;;;;;;;;;;5075047;28;20244;-46
2021/09/03 10:38:33;;;;;;;5.30;4.03;;;;;;;;;;5093425;28;20561;-46
2021/09/03 10:41:00;;;;;;;5.15;3.90;;;;;;;;;;5107231;28;20200;-46
2021/09/03 10:43:43;;;;;;;4.65;3.95;;;;;;;;;;5096142;28;20174;-46
2021/09/03 10:46:12;;;;;;;4.85;4.35;;;;;;;;;;5094912;28;20196;-46
2021/09/03 10:48:38;;;;;;;4.45;4.05;;;;;;;;;;5094283;28;20182;-46
2021/09/03 10:51:04;;;;;;;5.18;4.57;;;;;;;;;;5093346;28;20478;-46
2021/09/03 10:53:43;;;;;;;4.93;4.15;;;;;;;;;;5094822;28;20178;-46
2021/09/03 10:56:09;;;;;;;4.68;3.88;;;;;;;;;;5080692;28;20174;-46
2021/09/03 10:58:38;;;;;;;5.88;4.53;;;;;;;;;;5088568;28;20173;-46
2021/09/03 11:01:10;;;;;;;5.18;4.50;;;;;;;;;;5094864;28;20455;-45
2021/09/03 11:03:44;;;;;;;6.28;4.47;;;;;;;;;;5074973;28;20182;-46
2021/09/03 11:06:29;;;;;;;5.75;4.60;;;;;;;;;;5074063;28;20174;-46
2021/09/03 11:08:59;;;;;;;5.32;4.82;;;;;;;;;;5082575;28;20203;-46
2021/09/03 11:11:33;;;;;;;4.80;4.32;;;;;;;;;;5094452;28;20221;-46
2021/09/03 11:13:59;;;;;;;5.07;4.40;;;;;;;;;;5083334;28;20174;-46
2021/09/03 11:16:34;;;;;;;4.70;4.28;;;;;;;;;;5088327;28;20188;-46
2021/09/03 11:19:06;;;;;;;5.53;4.38;;;;;;;;;;5079846;28;20177;-46
2021/09/03 11:21:51;;;;;;;4.40;4.00;;;;;;;;;;5087932;28;20247;-46
2021/09/03 11:24:22;;;;;;;5.95;4.40;;;;;;;;;;5077891;28;20220;-46
2021/09/03 11:26:49;;;;;;;4.30;3.90;;;;;;;;;;5078775;28;20174;-46
2021/09/03 11:29:35;;;;;;;5.28;4.78;;;;;;;;;;5073844;28;20178;-46
2021/09/03 11:32:12;;;;;;;5.53;4.60;;;;;;;;;;5073438;28;20275;-47
2021/09/03 11:34:44;;;;;;;5.53;4.13;;;;;;;;;;5074844;28;20170;-46
2021/09/03 11:37:16;;;;;;;4.93;4.43;;;;;;;;;;5080963;28;20202;-46
2021/09/03 11:39:42;;;;;;;4.97;4.47;;;;;;;;;;5102151;28;20189;-46
2021/09/03 11:42:17;;;;;;;4.57;3.95;;;;;;;;;;5112736;28;20197;-46
2021/09/03 11:44:50;;;;;;;4.63;3.83;;;;;;;;;;5102852;28;20265;-46
2021/09/03 11:47:22;;;;;;;4.32;3.88;;;;;;;;;;5075604;28;20243;-46
2021/09/03 11:49:51;;;;;;;3.97;3.67;;;;;;;;;;5094505;28;20541;-46
2021/09/03 11:52:17;;;;;;;4.45;4.05;;;;;;;;;;5093629;28;20193;-46
2021/09/03 11:54:50;;;;;;;4.97;3.80;;;;;;;;;;5094441;28;20185;-46
2021/09/03 11:57:16;;;;;;;4.70;3.72;;;;;;;;;;5092091;28;20572;-46
2021/09/03 12:00:00;;;;;;;4.07;3.67;;;;;;;;;;5073800;28;20270;-46
2021/09/03 12:02:29;;;;;;;5.22;3.80;;;;;;;;;;5073939;28;20174;-46
2021/09/03 12:04:56;;;;;;;4.50;4.03;;;;;;;;;;5074130;28;20167;-46
2021/09/03 12:07:23;;;;;;;4.22;3.83;;;;;;;;;;5080396;28;20189;-46
2021/09/03 12:09:54;;;;;;;5.28;3.75;;;;;;;;;;5089248;28;20477;-46
2021/09/03 12:12:23;;;;;;;4.30;3.90;;;;;;;;;;5094205;28;20159;-46
2021/09/03 12:14:56;;;;;;;3.85;3.45;;;;;;;;;;5078398;28;20566;-46
2021/09/03 12:17:23;;;;;;;3.78;3.47;;;;;;;;;;5075703;28;20186;-45
2021/09/03 12:19:49;;;;;;;4.75;3.90;;;;;;;;;;5097893;28;20161;-45
2021/09/03 12:22:19;;;;;;;5.53;3.67;;;;;;;;;;5097480;28;20184;-46
2021/09/03 12:24:49;;;;;;;4.10;3.67;;;;;;;;;;5097396;28;20174;-46
2021/09/03 12:27:15;;;;;;;4.60;4.03;;;;;;;;;;5096126;28;20174;-45
2021/09/03 12:29:43;;;;;;;4.13;3.67;;;;;;;;;;5077216;28;20175;-45
2021/09/03 12:32:11;;;;;;;4.68;4.28;;;;;;;;;;5084905;28;20281;-45
2021/09/03 12:34:39;;;;;;;4.30;3.47;;;;;;;;;;5097339;28;20261;-45
2021/09/03 12:37:08;;;;;;;3.80;3.40;;;;;;;;;;5097165;28;20608;-46
2021/09/03 12:39:35;;;;;;;4.75;3.72;;;;;;;;;;5104782;28;20178;-46
2021/09/03 12:42:03;;;;;;;5.28;4.15;;;;;;;;;;5101892;28;20243;-46
2021/09/03 12:44:31;;;;;;;4.57;3.83;;;;;;;;;;5095663;28;20178;-46
2021/09/03 12:46:58;;;;;;;4.38;3.97;;;;;;;;;;5096880;28;20273;-46
2021/09/03 12:49:28;;;;;;;4.43;3.90;;;;;;;;;;5078711;28;20189;-46
2021/09/03 12:51:56;;;;;;;4.22;3.83;;;;;;;;;;5083474;28;20236;-46
2021/09/03 12:54:23;;;;;;;6.20;4.10;;;;;;;;;;5097284;28;20659;-46
2021/09/03 12:56:49;;;;;;;4.65;4.25;;;;;;;;;;5092131;28;20178;-46
2021/09/03 12:59:15;;;;;;;4.93;4.20;;;;;;;;;;5091046;28;20276;-46
2021/09/03 13:01:42;;;;;;;4.80;3.92;;;;;;;;;;5096752;28;20235;-46
2021/09/03 13:04:17;;;;;;;5.57;4.05;;;;;;;;;;5097145;28;20193;-46
2021/09/03 13:06:47;;;;;;;5.05;4.28;;;;;;;;;;5095163;28;20177;-46
2021/09/03 13:09:13;;;;;;;4.82;4.32;;;;;;;;;;5091809;28;20624;-46
2021/09/03 13:11:39;;;;;;;6.43;4.22;;;;;;;;;;5096435;28;20213;-46
2021/09/03 13:14:05;;;;;;;5.63;4.05;;;;;;;;;;5087255;28;20188;-46
2021/09/03 13:16:36;;;;;;;6.28;4.53;;;;;;;;;;5095546;28;20185;-46
2021/09/03 13:19:02;;;;;;;4.38;3.97;;;;;;;;;;5095595;28;20616;-46
2021/09/03 13:21:28;;;;;;;4.03;3.58;;;;;;;;;;5095344;28;20256;-46
2021/09/03 13:23:54;;;;;;;4.25;3.80;;;;;;;;;;5095584;28;20185;-47
2021/09/03 13:26:21;;;;;;;5.07;3.95;;;;;;;;;;5076527;28;20171;-46
2021/09/03 13:28:47;;;;;;;9.88;4.07;;;;;;;;;;5086222;28;20181;-45
2021/09/03 13:31:19;;;;;;;8.80;3.85;;;;;;;;;;5095287;28;20677;-45
2021/09/03 13:33:45;;;;;;;15.93;4.07;;;;;;;;;;5078283;28;20224;-45
2021/09/03 13:36:11;;;;;;;12.68;3.70;;;;;;;;;;5094742;28;20549;-45
2021/09/03 13:38:38;;;;;;;6.68;3.42;;;;;;;;;;5094235;28;20246;-45
2021/09/03 13:41:03;;;;;;;9.63;3.67;;;;;;;;;;5101081;28;20188;-45
2021/09/03 13:43:29;;;;;;;7.25;3.70;;;;;;;;;;5089714;28;20182;-45
2021/09/03 13:45:55;;;;;;;8.73;3.90;;;;;;;;;;5095116;28;20170;-45
2021/09/03 13:48:21;;;;;;;4.30;3.67;;;;;;;;;;5092351;28;20201;-45
2021/09/03 13:50:47;;;;;;;7.60;3.85;;;;;;;;;;5078433;28;20210;-45
2021/09/03 13:53:13;;;;;;;4.85;3.88;;;;;;;;;;5089306;28;20224;-45
2021/09/03 13:55:42;;;;;;;4.85;4.13;;;;;;;;;;5096183;28;20232;-45
2021/09/03 13:58:08;;;;;;;4.50;3.65;;;;;;;;;;5084871;28;20545;-45
2021/09/03 14:00:34;;;;;;;3.95;3.47;;;;;;;;;;5090403;28;20254;-45
2021/09/03 14:03:00;;;;;;;5.13;3.53;;;;;;;;;;5084304;28;20624;-45
2021/09/03 14:05:26;;;;;;;3.70;3.35;;;;;;;;;;5088736;28;20169;-45
2021/09/03 14:07:53;;;;;;;6.07;4.10;;;;;;;;;;5080758;28;20253;-45
2021/09/03 14:10:19;;;;;;;5.50;3.72;;;;;;;;;;5089465;28;20224;-45
2021/09/03 14:12:45;;;;;;;4.88;4.13;;;;;;;;;;5095415;28;20204;-46
2021/09/03 14:15:11;;;;;;;7.05;3.80;;;;;;;;;;5076960;28;20185;-46
2021/09/03 14:17:37;;;;;;;5.75;4.22;;;;;;;;;;5074765;28;20191;-46
2021/09/03 14:20:04;;;;;;;5.30;4.10;;;;;;;;;;5086789;28;20227;-46
2021/09/03 14:22:30;;;;;;;4.50;3.75;;;;;;;;;;5095164;28;20230;-46
2021/09/03 14:24:57;;;;;;;4.95;3.90;;;;;;;;;;5095544;28;20157;-46
2021/09/03 14:27:23;;;;;;;5.78;4.32;;;;;;;;;;5094668;28;20537;-46
2021/09/03 14:29:49;;;;;;;5.55;3.97;;;;;;;;;;5085687;28;20189;-46
2021/09/03 14:32:15;;;;;;;4.00;3.60;;;;;;;;;;5075251;28;20182;-46
2021/09/03 14:34:43;;;;;;;5.70;3.72;;;;;;;;;;5074921;28;20181;-46
2021/09/03 14:37:09;;;;;;;3.85;3.42;;;;;;;;;;5078474;28;20177;-46
2021/09/03 14:39:35;;;;;;;4.85;4.20;;;;;;;;;;5103689;28;20181;-46
2021/09/03 14:42:01;;;;;;;4.35;3.95;;;;;;;;;;5097900;28;20192;-45
2021/09/03 14:44:27;;;;;;;4.13;3.70;;;;;;;;;;5103915;28;20441;-45